sensor_id;sensor_type;location;lat;lon;timestamp;P1;durP1;ratioP1;P2;durP2;ratioP2
4808;SDS011;2418;49.930;8.606;2024-02-26T00:01:25;1.10;;;1.00;;
4808;SDS011;2418;49.930;8.606;2024-02-26T00:03:51;1.20;;;1.10;;
4808;SDS011;2418;49.930;8.606;2024-02-26T00:06:17;0.90;;;0.90;;
4808;SDS011;2418;49.930;8.606;2024-02-26T00:08:43;1.00;;;0.70;;
4808;SDS011;2418;49.930;8.606;2024-02-26T00:11:09;5.90;;;1.13;;
4808;SDS011;2418;49.930;8.606;2024-02-26T00:13:35;0.90;;;0.90;;
4808;SDS011;2418;49.930;8.606;2024-02-26T00:16:02;1.02;;;0.90;;
4808;SDS011;2418;49.930;8.606;2024-02-26T00:18:28;0.95;;;0.75;;
4808;SDS011;2418;49.930;8.606;2024-02-26T00:20:54;1.00;;;1.00;;
4808;SDS011;2418;49.930;8.606;2024-02-26T00:23:20;1.00;;;1.00;;
4808;SDS011;2418;49.930;8.606;2024-02-26T00:25:48;1.20;;;1.10;;
4808;SDS011;2418;49.930;8.606;2024-02-26T00:28:13;0.95;;;0.95;;
4808;SDS011;2418;49.930;8.606;2024-02-26T00:30:40;0.80;;;0.80;;
4808;SDS011;2418;49.930;8.606;2024-02-26T00:33:05;1.17;;;1.07;;
4808;SDS011;2418;49.930;8.606;2024-02-26T00:35:31;1.08;;;1.08;;
4808;SDS011;2418;49.930;8.606;2024-02-26T00:37:57;1.00;;;1.00;;
4808;SDS011;2418;49.930;8.606;2024-02-26T00:40:24;1.63;;;1.00;;
4808;SDS011;2418;49.930;8.606;2024-02-26T00:42:50;1.67;;;0.90;;
4808;SDS011;2418;49.930;8.606;2024-02-26T00:45:16;1.00;;;1.00;;
4808;SDS011;2418;49.930;8.606;2024-02-26T00:47:42;1.17;;;1.17;;
4808;SDS011;2418;49.930;8.606;2024-02-26T00:50:10;1.20;;;1.20;;
4808;SDS011;2418;49.930;8.606;2024-02-26T00:52:36;1.00;;;1.00;;
4808;SDS011;2418;49.930;8.606;2024-02-26T00:55:02;1.15;;;1.15;;
4808;SDS011;2418;49.930;8.606;2024-02-26T00:57:28;1.33;;;1.23;;
4808;SDS011;2418;49.930;8.606;2024-02-26T00:59:54;1.70;;;1.17;;
4808;SDS011;2418;49.930;8.606;2024-02-26T01:02:21;1.00;;;1.00;;
4808;SDS011;2418;49.930;8.606;2024-02-26T01:04:47;0.90;;;0.90;;
4808;SDS011;2418;49.930;8.606;2024-02-26T01:07:13;1.30;;;1.20;;
4808;SDS011;2418;49.930;8.606;2024-02-26T01:09:39;0.80;;;0.80;;
4808;SDS011;2418;49.930;8.606;2024-02-26T01:12:05;1.30;;;1.20;;
4808;SDS011;2418;49.930;8.606;2024-02-26T01:14:31;1.30;;;1.30;;
4808;SDS011;2418;49.930;8.606;2024-02-26T01:16:57;1.00;;;1.00;;
4808;SDS011;2418;49.930;8.606;2024-02-26T01:19:23;1.15;;;1.15;;
4808;SDS011;2418;49.930;8.606;2024-02-26T01:21:49;2.00;;;1.17;;
4808;SDS011;2418;49.930;8.606;2024-02-26T01:24:15;2.57;;;1.30;;
4808;SDS011;2418;49.930;8.606;2024-02-26T01:26:42;1.58;;;1.48;;
4808;SDS011;2418;49.930;8.606;2024-02-26T01:29:08;1.08;;;1.08;;
4808;SDS011;2418;49.930;8.606;2024-02-26T01:31:34;1.10;;;1.10;;
4808;SDS011;2418;49.930;8.606;2024-02-26T01:34:00;1.20;;;1.10;;
4808;SDS011;2418;49.930;8.606;2024-02-26T01:36:27;1.02;;;1.02;;
4808;SDS011;2418;49.930;8.606;2024-02-26T01:38:52;1.38;;;1.27;;
4808;SDS011;2418;49.930;8.606;2024-02-26T01:41:18;1.00;;;1.00;;
4808;SDS011;2418;49.930;8.606;2024-02-26T01:43:44;2.10;;;1.30;;
4808;SDS011;2418;49.930;8.606;2024-02-26T01:46:11;1.63;;;1.25;;
4808;SDS011;2418;49.930;8.606;2024-02-26T01:48:39;1.55;;;1.45;;
4808;SDS011;2418;49.930;8.606;2024-02-26T01:51:05;1.40;;;1.30;;
4808;SDS011;2418;49.930;8.606;2024-02-26T01:53:31;1.42;;;1.42;;
4808;SDS011;2418;49.930;8.606;2024-02-26T01:55:57;1.20;;;1.10;;
4808;SDS011;2418;49.930;8.606;2024-02-26T01:58:24;2.28;;;1.67;;
4808;SDS011;2418;49.930;8.606;2024-02-26T02:00:50;1.60;;;1.20;;
4808;SDS011;2418;49.930;8.606;2024-02-26T02:03:16;1.40;;;1.30;;
4808;SDS011;2418;49.930;8.606;2024-02-26T02:05:42;1.20;;;1.20;;
4808;SDS011;2418;49.930;8.606;2024-02-26T02:08:09;1.40;;;1.30;;
4808;SDS011;2418;49.930;8.606;2024-02-26T02:10:37;1.50;;;1.50;;
4808;SDS011;2418;49.930;8.606;2024-02-26T02:13:03;1.10;;;1.10;;
4808;SDS011;2418;49.930;8.606;2024-02-26T02:15:29;1.60;;;1.50;;
4808;SDS011;2418;49.930;8.606;2024-02-26T02:17:55;1.58;;;1.48;;
4808;SDS011;2418;49.930;8.606;2024-02-26T02:20:34;1.45;;;1.35;;
4808;SDS011;2418;49.930;8.606;2024-02-26T02:23:00;1.40;;;1.30;;
4808;SDS011;2418;49.930;8.606;2024-02-26T02:25:26;1.25;;;1.25;;
4808;SDS011;2418;49.930;8.606;2024-02-26T02:27:55;1.50;;;1.50;;
4808;SDS011;2418;49.930;8.606;2024-02-26T02:30:23;1.33;;;1.30;;
4808;SDS011;2418;49.930;8.606;2024-02-26T02:32:49;2.40;;;1.30;;
4808;SDS011;2418;49.930;8.606;2024-02-26T02:35:16;1.40;;;1.40;;
4808;SDS011;2418;49.930;8.606;2024-02-26T02:37:42;1.50;;;1.40;;
4808;SDS011;2418;49.930;8.606;2024-02-26T02:40:08;1.27;;;1.27;;
4808;SDS011;2418;49.930;8.606;2024-02-26T02:42:34;1.10;;;1.10;;
4808;SDS011;2418;49.930;8.606;2024-02-26T02:44:59;1.50;;;1.50;;
4808;SDS011;2418;49.930;8.606;2024-02-26T02:47:25;1.58;;;1.58;;
4808;SDS011;2418;49.930;8.606;2024-02-26T02:49:51;1.65;;;1.55;;
4808;SDS011;2418;49.930;8.606;2024-02-26T02:52:17;1.10;;;1.10;;
4808;SDS011;2418;49.930;8.606;2024-02-26T02:54:43;1.60;;;1.30;;
4808;SDS011;2418;49.930;8.606;2024-02-26T02:57:09;1.40;;;1.40;;
4808;SDS011;2418;49.930;8.606;2024-02-26T02:59:36;1.52;;;1.42;;
4808;SDS011;2418;49.930;8.606;2024-02-26T03:02:02;1.30;;;1.30;;
4808;SDS011;2418;49.930;8.606;2024-02-26T03:04:28;1.20;;;1.20;;
4808;SDS011;2418;49.930;8.606;2024-02-26T03:06:54;1.40;;;1.30;;
4808;SDS011;2418;49.930;8.606;2024-02-26T03:09:20;1.52;;;1.52;;
4808;SDS011;2418;49.930;8.606;2024-02-26T03:11:46;2.20;;;1.40;;
4808;SDS011;2418;49.930;8.606;2024-02-26T03:14:12;1.30;;;1.30;;
4808;SDS011;2418;49.930;8.606;2024-02-26T03:16:38;1.60;;;1.40;;
4808;SDS011;2418;49.930;8.606;2024-02-26T03:19:04;1.57;;;1.50;;
4808;SDS011;2418;49.930;8.606;2024-02-26T03:21:30;1.08;;;1.08;;
4808;SDS011;2418;49.930;8.606;2024-02-26T03:23:56;1.40;;;1.30;;
4808;SDS011;2418;49.930;8.606;2024-02-26T03:26:22;1.55;;;1.45;;
4808;SDS011;2418;49.930;8.606;2024-02-26T03:28:48;1.55;;;1.55;;
4808;SDS011;2418;49.930;8.606;2024-02-26T03:31:14;1.40;;;1.30;;
4808;SDS011;2418;49.930;8.606;2024-02-26T03:33:40;1.70;;;1.70;;
4808;SDS011;2418;49.930;8.606;2024-02-26T03:36:06;1.20;;;1.20;;
4808;SDS011;2418;49.930;8.606;2024-02-26T03:38:32;2.10;;;1.45;;
4808;SDS011;2418;49.930;8.606;2024-02-26T03:40:58;1.40;;;1.40;;
4808;SDS011;2418;49.930;8.606;2024-02-26T03:43:24;3.17;;;1.50;;
4808;SDS011;2418;49.930;8.606;2024-02-26T03:45:50;2.08;;;1.80;;
4808;SDS011;2418;49.930;8.606;2024-02-26T03:48:16;1.40;;;1.40;;
4808;SDS011;2418;49.930;8.606;2024-02-26T03:50:42;1.70;;;1.60;;
4808;SDS011;2418;49.930;8.606;2024-02-26T03:53:08;1.50;;;1.50;;
4808;SDS011;2418;49.930;8.606;2024-02-26T03:55:37;1.57;;;1.47;;
4808;SDS011;2418;49.930;8.606;2024-02-26T03:58:03;1.40;;;1.30;;
4808;SDS011;2418;49.930;8.606;2024-02-26T04:00:29;1.80;;;1.80;;
4808;SDS011;2418;49.930;8.606;2024-02-26T04:02:55;1.23;;;1.23;;
4808;SDS011;2418;49.930;8.606;2024-02-26T04:05:22;1.40;;;1.40;;
4808;SDS011;2418;49.930;8.606;2024-02-26T04:07:47;1.65;;;1.65;;
4808;SDS011;2418;49.930;8.606;2024-02-26T04:10:13;2.00;;;1.73;;
4808;SDS011;2418;49.930;8.606;2024-02-26T04:12:40;1.40;;;1.40;;
4808;SDS011;2418;49.930;8.606;2024-02-26T04:15:06;1.60;;;1.50;;
4808;SDS011;2418;49.930;8.606;2024-02-26T04:17:33;1.77;;;1.67;;
4808;SDS011;2418;49.930;8.606;2024-02-26T04:19:59;1.70;;;1.60;;
4808;SDS011;2418;49.930;8.606;2024-02-26T04:22:25;1.63;;;1.63;;
4808;SDS011;2418;49.930;8.606;2024-02-26T04:24:51;2.20;;;2.00;;
4808;SDS011;2418;49.930;8.606;2024-02-26T04:27:16;1.90;;;1.70;;
4808;SDS011;2418;49.930;8.606;2024-02-26T04:29:42;2.45;;;2.35;;
4808;SDS011;2418;49.930;8.606;2024-02-26T04:32:08;3.60;;;3.40;;
4808;SDS011;2418;49.930;8.606;2024-02-26T04:34:34;2.08;;;1.98;;
4808;SDS011;2418;49.930;8.606;2024-02-26T04:37:00;1.88;;;1.77;;
4808;SDS011;2418;49.930;8.606;2024-02-26T04:39:26;2.70;;;2.40;;
4808;SDS011;2418;49.930;8.606;2024-02-26T04:41:52;3.75;;;1.83;;
4808;SDS011;2418;49.930;8.606;2024-02-26T04:44:18;2.05;;;2.03;;
4808;SDS011;2418;49.930;8.606;2024-02-26T04:46:44;3.08;;;2.05;;
4808;SDS011;2418;49.930;8.606;2024-02-26T04:49:10;2.40;;;2.20;;
4808;SDS011;2418;49.930;8.606;2024-02-26T04:51:36;2.50;;;2.40;;
4808;SDS011;2418;49.930;8.606;2024-02-26T04:54:02;2.13;;;1.92;;
4808;SDS011;2418;49.930;8.606;2024-02-26T04:56:28;6.30;;;2.40;;
4808;SDS011;2418;49.930;8.606;2024-02-26T04:58:54;5.78;;;2.40;;
4808;SDS011;2418;49.930;8.606;2024-02-26T05:01:20;7.70;;;2.20;;
4808;SDS011;2418;49.930;8.606;2024-02-26T05:03:46;2.47;;;2.10;;
4808;SDS011;2418;49.930;8.606;2024-02-26T05:06:12;2.60;;;2.38;;
4808;SDS011;2418;49.930;8.606;2024-02-26T05:08:38;5.17;;;2.60;;
4808;SDS011;2418;49.930;8.606;2024-02-26T05:11:04;2.45;;;2.30;;
4808;SDS011;2418;49.930;8.606;2024-02-26T05:13:31;2.88;;;2.78;;
4808;SDS011;2418;49.930;8.606;2024-02-26T05:15:57;3.70;;;2.80;;
4808;SDS011;2418;49.930;8.606;2024-02-26T05:18:23;11.77;;;2.70;;
4808;SDS011;2418;49.930;8.606;2024-02-26T05:20:49;3.00;;;2.90;;
4808;SDS011;2418;49.930;8.606;2024-02-26T05:23:15;4.20;;;3.05;;
4808;SDS011;2418;49.930;8.606;2024-02-26T05:25:41;4.30;;;3.80;;
4808;SDS011;2418;49.930;8.606;2024-02-26T05:28:07;11.80;;;4.63;;
4808;SDS011;2418;49.930;8.606;2024-02-26T05:30:33;6.63;;;3.10;;
4808;SDS011;2418;49.930;8.606;2024-02-26T05:32:59;4.90;;;3.33;;
4808;SDS011;2418;49.930;8.606;2024-02-26T05:35:25;4.53;;;3.40;;
4808;SDS011;2418;49.930;8.606;2024-02-26T05:37:51;5.07;;;3.83;;
4808;SDS011;2418;49.930;8.606;2024-02-26T05:40:18;6.25;;;4.30;;
4808;SDS011;2418;49.930;8.606;2024-02-26T05:42:44;5.88;;;4.68;;
4808;SDS011;2418;49.930;8.606;2024-02-26T05:45:10;5.32;;;4.32;;
4808;SDS011;2418;49.930;8.606;2024-02-26T05:47:37;9.68;;;4.07;;
4808;SDS011;2418;49.930;8.606;2024-02-26T05:50:11;5.15;;;4.03;;
4808;SDS011;2418;49.930;8.606;2024-02-26T05:52:38;6.35;;;4.30;;
4808;SDS011;2418;49.930;8.606;2024-02-26T05:55:04;6.25;;;4.75;;
4808;SDS011;2418;49.930;8.606;2024-02-26T05:57:31;7.10;;;4.50;;
4808;SDS011;2418;49.930;8.606;2024-02-26T05:59:57;5.50;;;5.10;;
4808;SDS011;2418;49.930;8.606;2024-02-26T06:02:25;6.63;;;5.30;;
4808;SDS011;2418;49.930;8.606;2024-02-26T06:04:51;7.63;;;5.63;;
4808;SDS011;2418;49.930;8.606;2024-02-26T06:07:17;6.20;;;5.40;;
4808;SDS011;2418;49.930;8.606;2024-02-26T06:09:43;6.90;;;5.90;;
4808;SDS011;2418;49.930;8.606;2024-02-26T06:12:09;5.60;;;4.72;;
4808;SDS011;2418;49.930;8.606;2024-02-26T06:14:35;15.57;;;6.05;;
4808;SDS011;2418;49.930;8.606;2024-02-26T06:17:01;7.53;;;5.37;;
4808;SDS011;2418;49.930;8.606;2024-02-26T06:19:27;9.77;;;5.18;;
4808;SDS011;2418;49.930;8.606;2024-02-26T06:21:53;11.15;;;5.40;;
4808;SDS011;2418;49.930;8.606;2024-02-26T06:24:19;8.55;;;5.50;;
4808;SDS011;2418;49.930;8.606;2024-02-26T06:26:47;5.85;;;5.35;;
4808;SDS011;2418;49.930;8.606;2024-02-26T06:29:13;6.38;;;5.72;;
4808;SDS011;2418;49.930;8.606;2024-02-26T06:31:39;7.90;;;5.50;;
4808;SDS011;2418;49.930;8.606;2024-02-26T06:34:05;7.35;;;5.50;;
4808;SDS011;2418;49.930;8.606;2024-02-26T06:36:31;7.60;;;5.18;;
4808;SDS011;2418;49.930;8.606;2024-02-26T06:38:57;7.25;;;4.78;;
4808;SDS011;2418;49.930;8.606;2024-02-26T06:41:23;8.27;;;5.80;;
4808;SDS011;2418;49.930;8.606;2024-02-26T06:43:54;7.57;;;5.47;;
4808;SDS011;2418;49.930;8.606;2024-02-26T06:46:20;8.37;;;6.10;;
4808;SDS011;2418;49.930;8.606;2024-02-26T06:48:47;6.50;;;5.90;;
4808;SDS011;2418;49.930;8.606;2024-02-26T06:51:13;6.78;;;5.55;;
4808;SDS011;2418;49.930;8.606;2024-02-26T06:53:39;7.90;;;5.50;;
4808;SDS011;2418;49.930;8.606;2024-02-26T06:56:05;11.07;;;6.10;;
4808;SDS011;2418;49.930;8.606;2024-02-26T06:58:31;8.77;;;6.20;;
4808;SDS011;2418;49.930;8.606;2024-02-26T07:00:57;6.35;;;5.70;;
4808;SDS011;2418;49.930;8.606;2024-02-26T07:03:23;7.45;;;6.05;;
4808;SDS011;2418;49.930;8.606;2024-02-26T07:05:50;6.05;;;5.55;;
4808;SDS011;2418;49.930;8.606;2024-02-26T07:08:16;8.15;;;5.63;;
4808;SDS011;2418;49.930;8.606;2024-02-26T07:10:43;13.30;;;6.20;;
4808;SDS011;2418;49.930;8.606;2024-02-26T07:13:09;10.10;;;6.20;;
4808;SDS011;2418;49.930;8.606;2024-02-26T07:15:35;8.55;;;5.82;;
4808;SDS011;2418;49.930;8.606;2024-02-26T07:18:01;6.73;;;5.60;;
4808;SDS011;2418;49.930;8.606;2024-02-26T07:20:29;6.63;;;5.68;;
4808;SDS011;2418;49.930;8.606;2024-02-26T07:22:56;6.22;;;5.63;;
4808;SDS011;2418;49.930;8.606;2024-02-26T07:25:22;7.53;;;6.93;;
4808;SDS011;2418;49.930;8.606;2024-02-26T07:27:49;9.85;;;6.30;;
4808;SDS011;2418;49.930;8.606;2024-02-26T07:30:15;9.88;;;6.30;;
4808;SDS011;2418;49.930;8.606;2024-02-26T07:32:41;8.53;;;6.10;;
4808;SDS011;2418;49.930;8.606;2024-02-26T07:35:07;7.75;;;6.55;;
4808;SDS011;2418;49.930;8.606;2024-02-26T07:37:33;5.78;;;5.28;;
4808;SDS011;2418;49.930;8.606;2024-02-26T07:39:59;8.23;;;6.28;;
4808;SDS011;2418;49.930;8.606;2024-02-26T07:42:25;6.82;;;6.00;;
4808;SDS011;2418;49.930;8.606;2024-02-26T07:44:51;6.65;;;5.75;;
4808;SDS011;2418;49.930;8.606;2024-02-26T07:47:17;9.40;;;6.60;;
4808;SDS011;2418;49.930;8.606;2024-02-26T07:49:43;8.20;;;6.75;;
4808;SDS011;2418;49.930;8.606;2024-02-26T07:52:09;7.15;;;6.50;;
4808;SDS011;2418;49.930;8.606;2024-02-26T07:54:35;7.15;;;6.07;;
4808;SDS011;2418;49.930;8.606;2024-02-26T07:57:01;8.48;;;6.30;;
4808;SDS011;2418;49.930;8.606;2024-02-26T07:59:30;7.88;;;6.53;;
4808;SDS011;2418;49.930;8.606;2024-02-26T08:01:56;8.83;;;7.10;;
4808;SDS011;2418;49.930;8.606;2024-02-26T08:04:22;7.65;;;6.40;;
4808;SDS011;2418;49.930;8.606;2024-02-26T08:06:48;9.43;;;6.70;;
4808;SDS011;2418;49.930;8.606;2024-02-26T08:09:14;10.95;;;6.10;;
4808;SDS011;2418;49.930;8.606;2024-02-26T08:11:40;7.10;;;6.10;;
4808;SDS011;2418;49.930;8.606;2024-02-26T08:14:06;6.63;;;6.13;;
4808;SDS011;2418;49.930;8.606;2024-02-26T08:16:32;9.30;;;6.35;;
4808;SDS011;2418;49.930;8.606;2024-02-26T08:18:58;6.10;;;5.50;;
4808;SDS011;2418;49.930;8.606;2024-02-26T08:21:24;7.00;;;6.00;;
4808;SDS011;2418;49.930;8.606;2024-02-26T08:23:50;10.80;;;6.47;;
4808;SDS011;2418;49.930;8.606;2024-02-26T08:26:16;9.63;;;5.43;;
4808;SDS011;2418;49.930;8.606;2024-02-26T08:28:41;6.43;;;5.47;;
4808;SDS011;2418;49.930;8.606;2024-02-26T08:31:07;6.45;;;5.97;;
4808;SDS011;2418;49.930;8.606;2024-02-26T08:33:33;7.35;;;6.05;;
4808;SDS011;2418;49.930;8.606;2024-02-26T08:36:03;8.05;;;5.70;;
4808;SDS011;2418;49.930;8.606;2024-02-26T08:38:30;7.60;;;5.20;;
4808;SDS011;2418;49.930;8.606;2024-02-26T08:40:55;7.88;;;6.18;;
4808;SDS011;2418;49.930;8.606;2024-02-26T08:43:21;11.40;;;6.45;;
4808;SDS011;2418;49.930;8.606;2024-02-26T08:45:47;8.85;;;6.72;;
4808;SDS011;2418;49.930;8.606;2024-02-26T08:48:13;7.00;;;6.30;;
4808;SDS011;2418;49.930;8.606;2024-02-26T08:50:40;8.07;;;6.25;;
4808;SDS011;2418;49.930;8.606;2024-02-26T08:53:06;10.32;;;6.30;;
4808;SDS011;2418;49.930;8.606;2024-02-26T08:55:32;9.57;;;6.35;;
4808;SDS011;2418;49.930;8.606;2024-02-26T08:57:58;6.88;;;6.13;;
4808;SDS011;2418;49.930;8.606;2024-02-26T09:00:24;6.45;;;5.80;;
4808;SDS011;2418;49.930;8.606;2024-02-26T09:02:50;6.90;;;6.30;;
4808;SDS011;2418;49.930;8.606;2024-02-26T09:05:16;7.82;;;6.30;;
4808;SDS011;2418;49.930;8.606;2024-02-26T09:07:42;5.88;;;5.30;;
4808;SDS011;2418;49.930;8.606;2024-02-26T09:10:08;7.13;;;6.30;;
4808;SDS011;2418;49.930;8.606;2024-02-26T09:12:35;6.63;;;6.03;;
4808;SDS011;2418;49.930;8.606;2024-02-26T09:15:01;6.68;;;5.97;;
4808;SDS011;2418;49.930;8.606;2024-02-26T09:17:27;9.37;;;6.23;;
4808;SDS011;2418;49.930;8.606;2024-02-26T09:19:53;8.95;;;6.13;;
4808;SDS011;2418;49.930;8.606;2024-02-26T09:22:19;7.95;;;5.85;;
4808;SDS011;2418;49.930;8.606;2024-02-26T09:24:45;8.30;;;6.43;;
4808;SDS011;2418;49.930;8.606;2024-02-26T09:27:11;6.05;;;5.45;;
4808;SDS011;2418;49.930;8.606;2024-02-26T09:29:37;6.20;;;5.80;;
4808;SDS011;2418;49.930;8.606;2024-02-26T09:32:03;5.75;;;5.18;;
4808;SDS011;2418;49.930;8.606;2024-02-26T09:34:29;5.90;;;5.40;;
4808;SDS011;2418;49.930;8.606;2024-02-26T09:36:55;6.90;;;5.07;;
4808;SDS011;2418;49.930;8.606;2024-02-26T09:39:21;5.80;;;5.30;;
4808;SDS011;2418;49.930;8.606;2024-02-26T09:41:47;6.05;;;5.55;;
4808;SDS011;2418;49.930;8.606;2024-02-26T09:44:19;6.72;;;6.10;;
4808;SDS011;2418;49.930;8.606;2024-02-26T09:46:47;7.00;;;5.88;;
4808;SDS011;2418;49.930;8.606;2024-02-26T09:49:15;8.25;;;5.88;;
4808;SDS011;2418;49.930;8.606;2024-02-26T09:51:41;7.40;;;5.17;;
4808;SDS011;2418;49.930;8.606;2024-02-26T09:54:10;7.07;;;5.43;;
4808;SDS011;2418;49.930;8.606;2024-02-26T09:56:38;5.45;;;5.15;;
4808;SDS011;2418;49.930;8.606;2024-02-26T09:59:06;5.65;;;5.28;;
4808;SDS011;2418;49.930;8.606;2024-02-26T10:01:36;6.20;;;5.80;;
4808;SDS011;2418;49.930;8.606;2024-02-26T10:04:02;5.68;;;5.30;;
4808;SDS011;2418;49.930;8.606;2024-02-26T10:06:28;4.72;;;4.25;;
4808;SDS011;2418;49.930;8.606;2024-02-26T10:08:55;4.68;;;4.38;;
4808;SDS011;2418;49.930;8.606;2024-02-26T10:11:23;5.65;;;5.15;;
4808;SDS011;2418;49.930;8.606;2024-02-26T10:13:49;4.93;;;4.53;;
4808;SDS011;2418;49.930;8.606;2024-02-26T10:16:16;7.10;;;5.53;;
4808;SDS011;2418;49.930;8.606;2024-02-26T10:18:51;5.20;;;4.90;;
4808;SDS011;2418;49.930;8.606;2024-02-26T10:21:19;5.93;;;5.53;;
4808;SDS011;2418;49.930;8.606;2024-02-26T10:23:45;5.45;;;5.05;;
4808;SDS011;2418;49.930;8.606;2024-02-26T10:26:12;5.25;;;4.85;;
4808;SDS011;2418;49.930;8.606;2024-02-26T10:28:42;5.45;;;4.95;;
4808;SDS011;2418;49.930;8.606;2024-02-26T10:31:08;5.50;;;4.97;;
4808;SDS011;2418;49.930;8.606;2024-02-26T10:33:34;5.63;;;5.22;;
4808;SDS011;2418;49.930;8.606;2024-02-26T10:36:01;5.88;;;4.65;;
4808;SDS011;2418;49.930;8.606;2024-02-26T10:38:27;5.38;;;4.97;;
4808;SDS011;2418;49.930;8.606;2024-02-26T10:40:53;4.30;;;4.00;;
4808;SDS011;2418;49.930;8.606;2024-02-26T10:43:20;4.90;;;4.60;;
4808;SDS011;2418;49.930;8.606;2024-02-26T10:45:46;5.25;;;4.90;;
4808;SDS011;2418;49.930;8.606;2024-02-26T10:48:13;4.60;;;4.20;;
4808;SDS011;2418;49.930;8.606;2024-02-26T10:50:39;5.35;;;4.95;;
4808;SDS011;2418;49.930;8.606;2024-02-26T10:53:28;4.65;;;4.32;;
4808;SDS011;2418;49.930;8.606;2024-02-26T10:55:57;5.15;;;4.85;;
4808;SDS011;2418;49.930;8.606;2024-02-26T10:58:23;4.88;;;4.57;;
4808;SDS011;2418;49.930;8.606;2024-02-26T11:00:52;5.25;;;4.75;;
4808;SDS011;2418;49.930;8.606;2024-02-26T11:03:19;4.78;;;4.45;;
4808;SDS011;2418;49.930;8.606;2024-02-26T11:05:46;4.55;;;4.15;;
4808;SDS011;2418;49.930;8.606;2024-02-26T11:08:13;4.78;;;4.57;;
4808;SDS011;2418;49.930;8.606;2024-02-26T11:10:41;4.07;;;3.88;;
4808;SDS011;2418;49.930;8.606;2024-02-26T11:13:09;6.40;;;4.63;;
4808;SDS011;2418;49.930;8.606;2024-02-26T11:15:36;5.72;;;4.70;;
4808;SDS011;2418;49.930;8.606;2024-02-26T11:18:02;5.45;;;4.95;;
4808;SDS011;2418;49.930;8.606;2024-02-26T11:20:28;5.10;;;4.80;;
4808;SDS011;2418;49.930;8.606;2024-02-26T11:22:55;4.80;;;4.50;;
4808;SDS011;2418;49.930;8.606;2024-02-26T11:25:21;4.93;;;4.43;;
4808;SDS011;2418;49.930;8.606;2024-02-26T11:27:49;5.60;;;4.60;;
4808;SDS011;2418;49.930;8.606;2024-02-26T11:30:16;4.82;;;4.53;;
4808;SDS011;2418;49.930;8.606;2024-02-26T11:32:47;5.10;;;4.60;;
4808;SDS011;2418;49.930;8.606;2024-02-26T11:35:13;4.72;;;4.43;;
4808;SDS011;2418;49.930;8.606;2024-02-26T11:37:41;4.82;;;4.53;;
4808;SDS011;2418;49.930;8.606;2024-02-26T11:40:11;4.57;;;4.28;;
4808;SDS011;2418;49.930;8.606;2024-02-26T11:42:43;6.65;;;4.38;;
4808;SDS011;2418;49.930;8.606;2024-02-26T11:48:14;4.70;;;4.30;;
4808;SDS011;2418;49.930;8.606;2024-02-26T11:50:43;4.72;;;4.32;;
4808;SDS011;2418;49.930;8.606;2024-02-26T11:55:48;5.45;;;5.05;;
4808;SDS011;2418;49.930;8.606;2024-02-26T11:58:16;4.82;;;4.43;;
4808;SDS011;2418;49.930;8.606;2024-02-26T12:00:42;5.03;;;4.50;;
4808;SDS011;2418;49.930;8.606;2024-02-26T12:03:08;5.20;;;4.80;;
4808;SDS011;2418;49.930;8.606;2024-02-26T12:05:37;5.10;;;4.60;;
4808;SDS011;2418;49.930;8.606;2024-02-26T12:08:04;5.18;;;4.78;;
4808;SDS011;2418;49.930;8.606;2024-02-26T12:10:37;5.00;;;4.57;;
4808;SDS011;2418;49.930;8.606;2024-02-26T12:13:16;4.78;;;4.47;;
4808;SDS011;2418;49.930;8.606;2024-02-26T12:15:42;4.90;;;4.60;;
4808;SDS011;2418;49.930;8.606;2024-02-26T12:18:09;4.80;;;4.50;;
4808;SDS011;2418;49.930;8.606;2024-02-26T12:20:36;4.97;;;4.57;;
4808;SDS011;2418;49.930;8.606;2024-02-26T12:23:02;5.18;;;4.78;;
4808;SDS011;2418;49.930;8.606;2024-02-26T12:25:29;5.43;;;5.00;;
4808;SDS011;2418;49.930;8.606;2024-02-26T12:27:56;6.38;;;4.75;;
4808;SDS011;2418;49.930;8.606;2024-02-26T12:30:23;5.50;;;4.60;;
4808;SDS011;2418;49.930;8.606;2024-02-26T12:32:50;5.63;;;4.60;;
4808;SDS011;2418;49.930;8.606;2024-02-26T12:35:16;4.63;;;4.32;;
4808;SDS011;2418;49.930;8.606;2024-02-26T12:37:43;4.00;;;3.70;;
4808;SDS011;2418;49.930;8.606;2024-02-26T12:40:09;4.40;;;4.00;;
4808;SDS011;2418;49.930;8.606;2024-02-26T12:42:36;4.80;;;4.40;;
4808;SDS011;2418;49.930;8.606;2024-02-26T12:45:06;4.43;;;4.18;;
4808;SDS011;2418;49.930;8.606;2024-02-26T12:47:41;4.78;;;4.47;;
4808;SDS011;2418;49.930;8.606;2024-02-26T12:50:07;4.57;;;4.22;;
4808;SDS011;2418;49.930;8.606;2024-02-26T12:52:34;4.75;;;4.35;;
4808;SDS011;2418;49.930;8.606;2024-02-26T12:55:03;5.22;;;4.82;;
4808;SDS011;2418;49.930;8.606;2024-02-26T12:57:31;5.38;;;4.88;;
4808;SDS011;2418;49.930;8.606;2024-02-26T12:59:58;4.90;;;4.60;;
4808;SDS011;2418;49.930;8.606;2024-02-26T13:02:25;7.20;;;4.72;;
4808;SDS011;2418;49.930;8.606;2024-02-26T13:04:51;5.65;;;5.15;;
4808;SDS011;2418;49.930;8.606;2024-02-26T13:07:18;8.10;;;5.82;;
4808;SDS011;2418;49.930;8.606;2024-02-26T13:09:44;5.47;;;4.97;;
4808;SDS011;2418;49.930;8.606;2024-02-26T13:12:10;5.45;;;5.03;;
4808;SDS011;2418;49.930;8.606;2024-02-26T13:14:37;4.80;;;4.47;;
4808;SDS011;2418;49.930;8.606;2024-02-26T13:17:03;4.85;;;4.55;;
4808;SDS011;2418;49.930;8.606;2024-02-26T13:19:29;5.47;;;4.97;;
4808;SDS011;2418;49.930;8.606;2024-02-26T13:21:55;5.75;;;5.15;;
4808;SDS011;2418;49.930;8.606;2024-02-26T13:24:22;5.45;;;5.05;;
4808;SDS011;2418;49.930;8.606;2024-02-26T13:26:56;5.93;;;5.53;;
4808;SDS011;2418;49.930;8.606;2024-02-26T13:29:22;5.10;;;4.70;;
4808;SDS011;2418;49.930;8.606;2024-02-26T13:31:53;6.18;;;4.55;;
4808;SDS011;2418;49.930;8.606;2024-02-26T13:34:23;4.80;;;4.40;;
4808;SDS011;2418;49.930;8.606;2024-02-26T13:36:50;4.47;;;4.07;;
4808;SDS011;2418;49.930;8.606;2024-02-26T13:39:22;4.33;;;4.20;;
4808;SDS011;2418;49.930;8.606;2024-02-26T13:41:49;4.93;;;4.53;;
4808;SDS011;2418;49.930;8.606;2024-02-26T13:44:15;5.80;;;3.70;;
4808;SDS011;2418;49.930;8.606;2024-02-26T13:46:41;4.82;;;4.32;;
4808;SDS011;2418;49.930;8.606;2024-02-26T13:49:08;4.70;;;4.40;;
4808;SDS011;2418;49.930;8.606;2024-02-26T13:51:34;4.75;;;4.35;;
4808;SDS011;2418;49.930;8.606;2024-02-26T13:54:01;5.43;;;5.03;;
4808;SDS011;2418;49.930;8.606;2024-02-26T13:56:27;4.63;;;4.22;;
4808;SDS011;2418;49.930;8.606;2024-02-26T13:58:53;4.35;;;4.05;;
4808;SDS011;2418;49.930;8.606;2024-02-26T14:01:19;7.15;;;4.47;;
4808;SDS011;2418;49.930;8.606;2024-02-26T14:03:45;4.38;;;4.18;;
4808;SDS011;2418;49.930;8.606;2024-02-26T14:06:11;5.07;;;4.67;;
4808;SDS011;2418;49.930;8.606;2024-02-26T14:08:37;4.75;;;4.35;;
4808;SDS011;2418;49.930;8.606;2024-02-26T14:11:03;5.13;;;4.07;;
4808;SDS011;2418;49.930;8.606;2024-02-26T14:13:29;4.18;;;3.78;;
4808;SDS011;2418;49.930;8.606;2024-02-26T14:15:55;3.88;;;3.67;;
4808;SDS011;2418;49.930;8.606;2024-02-26T14:18:21;4.40;;;4.10;;
4808;SDS011;2418;49.930;8.606;2024-02-26T14:20:47;5.40;;;3.77;;
4808;SDS011;2418;49.930;8.606;2024-02-26T14:23:13;4.43;;;4.10;;
4808;SDS011;2418;49.930;8.606;2024-02-26T14:25:39;3.90;;;3.80;;
4808;SDS011;2418;49.930;8.606;2024-02-26T14:28:05;4.18;;;3.88;;
4808;SDS011;2418;49.930;8.606;2024-02-26T14:30:31;4.22;;;4.03;;
4808;SDS011;2418;49.930;8.606;2024-02-26T14:32:58;4.40;;;4.20;;
4808;SDS011;2418;49.930;8.606;2024-02-26T14:35:24;6.75;;;4.50;;
4808;SDS011;2418;49.930;8.606;2024-02-26T14:37:51;3.97;;;3.78;;
4808;SDS011;2418;49.930;8.606;2024-02-26T14:40:17;4.10;;;3.75;;
4808;SDS011;2418;49.930;8.606;2024-02-26T14:42:44;3.72;;;3.53;;
4808;SDS011;2418;49.930;8.606;2024-02-26T14:45:10;4.30;;;4.00;;
4808;SDS011;2418;49.930;8.606;2024-02-26T14:47:36;4.10;;;3.80;;
4808;SDS011;2418;49.930;8.606;2024-02-26T14:50:02;4.40;;;4.10;;
4808;SDS011;2418;49.930;8.606;2024-02-26T14:52:28;3.47;;;3.28;;
4808;SDS011;2418;49.930;8.606;2024-02-26T14:54:54;3.63;;;3.22;;
4808;SDS011;2418;49.930;8.606;2024-02-26T14:57:20;5.60;;;3.50;;
4808;SDS011;2418;49.930;8.606;2024-02-26T14:59:46;4.87;;;4.20;;
4808;SDS011;2418;49.930;8.606;2024-02-26T15:02:13;4.63;;;4.43;;
4808;SDS011;2418;49.930;8.606;2024-02-26T15:04:39;4.50;;;4.10;;
4808;SDS011;2418;49.930;8.606;2024-02-26T15:07:05;3.70;;;3.53;;
4808;SDS011;2418;49.930;8.606;2024-02-26T15:09:31;4.03;;;3.70;;
4808;SDS011;2418;49.930;8.606;2024-02-26T15:11:57;3.70;;;3.60;;
4808;SDS011;2418;49.930;8.606;2024-02-26T15:14:23;4.30;;;3.88;;
4808;SDS011;2418;49.930;8.606;2024-02-26T15:16:50;3.88;;;3.67;;